createdAt,value
2023-04-01T00:10:22.718Z,80.4
2023-04-01T00:25:57.171Z,80.1
2023-04-01T00:41:31.185Z,79.4
2023-04-01T00:57:05.237Z,79.3
2023-04-01T01:12:39.322Z,78.3
2023-04-01T01:28:13.341Z,78.4
2023-04-01T01:43:47.351Z,77.7
2023-04-01T01:59:21.334Z,77.4
2023-04-01T02:14:55.387Z,77.2
2023-04-01T02:30:29.448Z,76.5
2023-04-01T02:46:03.481Z,76.7
2023-04-01T03:01:37.873Z,76.1
2023-04-01T03:17:12.073Z,76.6
2023-04-01T03:32:46.206Z,75.5
2023-04-01T03:48:20.481Z,75.7
2023-04-01T04:03:55.118Z,74.9
2023-04-01T04:19:29.329Z,75.1
2023-04-01T04:35:03.381Z,74.5
2023-04-01T04:50:37.278Z,75.2
2023-04-01T05:06:11.319Z,74.2
2023-04-01T05:21:45.356Z,74.5
2023-04-01T05:37:19.412Z,73.7
2023-04-01T05:52:53.428Z,74.3
2023-04-01T06:08:27.425Z,74.6
2023-04-01T06:24:01.456Z,71.7
2023-04-01T06:39:37.824Z,71.7
2023-04-01T06:55:11.900Z,69.9
2023-04-01T07:10:45.968Z,68.2
2023-04-01T07:26:19.993Z,67.2
2023-04-01T07:41:54.049Z,66.6
2023-04-01T07:57:28.372Z,64.2
2023-04-01T08:13:02.732Z,62.9
2023-04-01T08:28:36.792Z,63
2023-04-01T08:44:10.834Z,63.2
2023-04-01T08:59:44.929Z,64.7
2023-04-01T09:15:19.104Z,63.8
2023-04-01T09:30:53.154Z,64
2023-04-01T09:46:27.506Z,61.2
2023-04-01T10:02:01.953Z,60.4
2023-04-01T10:17:36.149Z,60.3
2023-04-01T10:33:11.396Z,60.5
2023-04-01T10:48:46.192Z,62.4
2023-04-01T11:04:20.641Z,65.1
2023-04-01T11:19:54.731Z,61.4
2023-04-01T11:35:28.809Z,61.2
2023-04-01T11:51:02.901Z,62.2
2023-04-01T12:06:37.028Z,61.9
2023-04-01T12:22:11.128Z,60.2
2023-04-01T12:37:45.227Z,60.9
2023-04-01T12:53:19.303Z,57.7
2023-04-01T13:08:53.497Z,58.2
2023-04-01T13:24:27.700Z,62.2
2023-04-01T13:40:01.779Z,58.4
2023-04-01T13:55:35.864Z,59.7
2023-04-01T14:11:09.951Z,61.3
2023-04-01T14:26:44.023Z,63.3
2023-04-01T14:42:23.833Z,68
2023-04-01T14:57:58.128Z,69.4
2023-04-01T15:13:32.236Z,69.9
2023-04-01T15:29:06.304Z,68
2023-04-01T15:44:40.438Z,66.8
2023-04-01T16:00:14.519Z,69.4
2023-04-01T16:15:48.438Z,71.7
2023-04-01T16:31:22.626Z,72.3
2023-04-01T16:46:56.729Z,74.5
2023-04-01T17:02:30.970Z,76.1
2023-04-01T17:18:05.287Z,78.8
2023-04-01T17:33:39.414Z,81.9
2023-04-01T17:49:13.667Z,84.6
2023-04-01T18:04:47.725Z,85.9
2023-04-01T18:20:21.814Z,86.4
2023-04-01T18:35:56.018Z,87.2
2023-04-01T18:51:30.160Z,88.5
2023-04-01T19:07:04.227Z,89.1
2023-04-01T19:22:38.314Z,90.3
2023-04-01T19:38:12.326Z,89.6
2023-04-01T19:53:46.342Z,90.4
2023-04-01T20:09:20.482Z,91.2
2023-04-01T20:24:54.512Z,91.5
2023-04-01T20:40:28.497Z,91.2
2023-04-01T20:56:02.976Z,90.6
2023-04-01T21:11:37.192Z,93.3
2023-04-01T21:27:11.550Z,94.3
2023-04-01T21:42:45.560Z,94.8
2023-04-01T21:58:19.567Z,96.6
2023-04-01T22:13:53.555Z,96.7
2023-04-01T22:29:27.565Z,98.1
2023-04-01T22:45:01.685Z,98.4
2023-04-01T23:00:35.718Z,97
2023-04-01T23:16:09.942Z,98.5
2023-04-01T23:31:44.024Z,99.9
2023-04-01T23:47:18.045Z,99.5
